createdAt,value
2022-08-10T00:01:04.416Z,102144.97
2022-08-10T00:03:08.005Z,102177.94
2022-08-10T00:05:10.739Z,102148.13
2022-08-10T00:07:13.441Z,102184.59
2022-08-10T00:09:15.992Z,102149.28
2022-08-10T00:11:19.050Z,102148.13
2022-08-10T00:13:23.001Z,102177.84
2022-08-10T00:15:52.301Z,102155.31
2022-08-10T00:17:48.250Z,102172.44
2022-08-10T00:20:04.103Z,102164.69
2022-08-10T00:22:11.658Z,102144.56
2022-08-10T00:24:19.828Z,102076.75
2022-08-10T00:26:22.611Z,102072.72
2022-08-10T00:28:25.289Z,102151.75
2022-08-10T00:30:28.026Z,102176.66
2022-08-10T00:32:30.753Z,102165.16
2022-08-10T00:34:34.811Z,102140.44
2022-08-10T00:36:37.365Z,102167.25
2022-08-10T00:38:39.970Z,102088.19
2022-08-10T00:40:42.695Z,102185.47
2022-08-10T00:42:45.245Z,102181.72
2022-08-10T00:44:50.275Z,102075.34
2022-08-10T00:46:52.866Z,102067.00
2022-08-10T00:49:00.300Z,102085.28
2022-08-10T00:51:03.742Z,102078.84
2022-08-10T00:53:06.475Z,102045.34
2022-08-10T00:55:09.170Z,102076.47
2022-08-10T00:57:15.521Z,102169.47
2022-08-10T00:59:21.039Z,102123.09
2022-08-10T01:02:09.757Z,102165.19
2022-08-10T01:04:36.230Z,102159.84
2022-08-10T01:06:34.521Z,102151.28
2022-08-10T01:08:48.137Z,102094.44
2022-08-10T01:12:39.426Z,102113.97
2022-08-10T01:13:45.750Z,102154.41
2022-08-10T01:16:03.174Z,102096.84
2022-08-10T01:18:45.185Z,102160.84
2022-08-10T01:20:59.577Z,102163.00
2022-08-10T01:23:58.437Z,102155.50
2022-08-10T01:26:40.477Z,102158.13
2022-08-10T01:29:17.850Z,102127.59
2022-08-10T01:31:28.920Z,102135.59
2022-08-10T01:33:58.517Z,102154.28
2022-08-10T01:36:10.218Z,102117.84
2022-08-10T01:38:24.340Z,102145.78
2022-08-10T01:40:32.872Z,102125.91
2022-08-10T01:42:37.574Z,102089.94
2022-08-10T01:44:49.877Z,102122.66
2022-08-10T01:47:22.253Z,102117.50
2022-08-10T01:49:27.203Z,102123.63
2022-08-10T01:51:40.315Z,102137.50
2022-08-10T01:54:02.929Z,102153.63
2022-08-10T01:56:07.636Z,102091.16
2022-08-10T01:58:11.712Z,102138.00
2022-08-10T02:00:14.798Z,102145.00
2022-08-10T02:02:18.044Z,102033.97
2022-08-10T02:04:23.190Z,102137.81
2022-08-10T02:06:28.482Z,102144.47
2022-08-10T02:08:33.961Z,102127.78
2022-08-10T02:10:40.157Z,102157.31
2022-08-10T02:12:44.342Z,102157.56
2022-08-10T02:14:59.247Z,102120.34
2022-08-10T02:17:07.138Z,102149.28
2022-08-10T02:19:16.466Z,102126.47
2022-08-10T02:21:21.152Z,102133.66
2022-08-10T02:23:29.845Z,102157.81
2022-08-10T02:25:42.714Z,102096.09
2022-08-10T02:27:48.384Z,102099.06
2022-08-10T02:29:53.503Z,102045.72
2022-08-10T02:31:56.721Z,102098.00
2022-08-10T02:33:59.745Z,102142.72
2022-08-10T02:36:05.816Z,102116.38
2022-08-10T02:38:10.017Z,102091.94
2022-08-10T02:42:18.214Z,102154.19
2022-08-10T02:45:26.508Z,102152.28
2022-08-10T02:45:30.950Z,102161.09
2022-08-10T02:47:51.749Z,102134.88
2022-08-10T02:50:08.369Z,102151.69
2022-08-10T02:52:19.305Z,102148.97
2022-08-10T02:54:27.141Z,102132.56
2022-08-10T02:56:39.802Z,102136.56
2022-08-10T02:59:01.284Z,102084.25
2022-08-10T03:01:11.002Z,102109.41
2022-08-10T03:03:22.442Z,102038.81
2022-08-10T03:05:25.501Z,102159.50
2022-08-10T03:08:00.670Z,102135.84
2022-08-10T03:10:11.124Z,102151.69
2022-08-10T03:12:37.531Z,102129.22
2022-08-10T03:14:41.981Z,102144.41
2022-08-10T03:16:46.162Z,102103.88
2022-08-10T03:18:50.146Z,102152.06
2022-08-10T03:20:53.518Z,102127.66
2022-08-10T03:22:57.298Z,102145.84
2022-08-10T03:25:01.367Z,102162.69
2022-08-10T03:27:05.292Z,102163.50
2022-08-10T03:29:08.717Z,102160.28
2022-08-10T03:31:13.125Z,102103.03
2022-08-10T03:33:17.456Z,102166.34
2022-08-10T03:35:21.699Z,102153.78
2022-08-10T03:37:24.634Z,102147.22
2022-08-10T03:39:27.651Z,102042.28
2022-08-10T03:41:36.766Z,102162.66
2022-08-10T03:43:41.902Z,102138.09
2022-08-10T03:45:54.844Z,102147.97
2022-08-10T03:48:00.087Z,102103.91
2022-08-10T03:50:45.758Z,102107.81
2022-08-10T03:52:27.324Z,102161.72
2022-08-10T03:54:30.153Z,102166.56
2022-08-10T03:56:35.613Z,102148.81
2022-08-10T03:58:38.277Z,102078.81
2022-08-10T04:00:41.841Z,102149.09
2022-08-10T04:02:48.313Z,102141.19
2022-08-10T04:04:51.152Z,102156.91
2022-08-10T04:06:57.449Z,102145.69
2022-08-10T04:09:00.186Z,102076.88
2022-08-10T04:11:02.761Z,102136.69
2022-08-10T04:13:05.358Z,102141.50
2022-08-10T04:15:08.593Z,102135.59
2022-08-10T04:17:14.045Z,102115.25
2022-08-10T04:19:20.551Z,102166.44
2022-08-10T04:21:31.135Z,102147.38
2022-08-10T04:23:40.482Z,102156.78
2022-08-10T04:25:43.197Z,102144.72
2022-08-10T04:27:47.026Z,102113.31
2022-08-10T04:29:51.665Z,102135.59
2022-08-10T04:31:54.230Z,102144.22
2022-08-10T04:33:59.612Z,102170.28
2022-08-10T04:36:12.695Z,102168.38
2022-08-10T04:38:17.642Z,102049.84
2022-08-10T04:40:25.209Z,102075.28
2022-08-10T04:42:33.452Z,102176.28
2022-08-10T04:44:36.327Z,102181.34
2022-08-10T04:46:42.743Z,102172.25
2022-08-10T04:48:59.756Z,102126.63
2022-08-10T04:51:05.110Z,102061.75
2022-08-10T04:53:07.709Z,102162.88
2022-08-10T04:55:10.321Z,102127.81
2022-08-10T04:57:12.937Z,102107.75
2022-08-10T04:59:15.554Z,102144.81
2022-08-10T05:01:20.714Z,102079.38
2022-08-10T05:03:27.001Z,102179.53
2022-08-10T05:05:29.598Z,102141.19
2022-08-10T05:07:32.230Z,102148.50
2022-08-10T05:10:03.045Z,102180.78
2022-08-10T05:12:09.600Z,102144.84
2022-08-10T05:14:12.171Z,102082.41
2022-08-10T05:16:30.718Z,102152.50
2022-08-10T05:18:35.988Z,102128.41
2022-08-10T05:20:39.079Z,102113.41
2022-08-10T05:22:44.517Z,102134.47
2022-08-10T05:24:47.077Z,102187.41
2022-08-10T05:27:00.397Z,102190.94
2022-08-10T05:29:12.236Z,102125.31
2022-08-10T05:31:14.928Z,102159.69
2022-08-10T05:33:25.661Z,102185.25
2022-08-10T05:35:51.931Z,102174.59
2022-08-10T05:38:10.115Z,102202.00
2022-08-10T05:40:16.533Z,102192.41
2022-08-10T05:42:21.707Z,102159.00
2022-08-10T05:44:25.286Z,102207.28
2022-08-10T05:46:27.882Z,102183.47
2022-08-10T05:48:55.411Z,102185.94
2022-08-10T05:50:53.220Z,102199.09
2022-08-10T05:52:55.815Z,102187.38
2022-08-10T05:55:02.611Z,102194.91
2022-08-10T05:57:05.671Z,102163.66
2022-08-10T05:59:09.199Z,102174.34
2022-08-10T06:01:15.348Z,102145.19
2022-08-10T06:03:24.044Z,102205.28
2022-08-10T06:05:31.108Z,102180.13
2022-08-10T06:07:38.131Z,102114.25
2022-08-10T06:09:59.734Z,102178.56
2022-08-10T06:12:26.709Z,102195.72
2022-08-10T06:14:48.511Z,102198.66
2022-08-10T06:16:56.906Z,102091.88
2022-08-10T06:19:01.145Z,102084.66
2022-08-10T06:21:05.534Z,102205.38
2022-08-10T06:23:08.366Z,102168.97
2022-08-10T06:25:51.105Z,102211.25
2022-08-10T06:27:35.991Z,102170.03
2022-08-10T06:29:42.036Z,102188.72
2022-08-10T06:31:50.624Z,102209.06
2022-08-10T06:33:54.490Z,102195.66
2022-08-10T06:35:58.279Z,102179.03
2022-08-10T06:38:05.263Z,102154.91
2022-08-10T06:40:08.811Z,102192.28
2022-08-10T06:42:18.715Z,102209.69
2022-08-10T06:44:29.375Z,102206.91
2022-08-10T06:46:38.277Z,102202.34
2022-08-10T06:49:13.725Z,102173.41
2022-08-10T06:51:23.309Z,102196.28
2022-08-10T06:53:52.736Z,102171.88
2022-08-10T06:56:02.830Z,102179.53
2022-08-10T06:58:07.218Z,102187.72
2022-08-10T07:00:20.067Z,102148.94
2022-08-10T07:02:31.769Z,102188.38
2022-08-10T07:04:48.756Z,102190.13
2022-08-10T07:06:52.045Z,102172.41
2022-08-10T07:08:55.905Z,102150.13
2022-08-10T07:10:59.691Z,102188.50
2022-08-10T07:13:02.934Z,102174.25
2022-08-10T07:15:09.138Z,102198.00
2022-08-10T07:17:16.766Z,102194.09
2022-08-10T07:19:20.515Z,102167.78
2022-08-10T07:21:26.720Z,102183.06
2022-08-10T07:23:56.905Z,102158.94
2022-08-10T07:25:55.230Z,102173.03
2022-08-10T07:28:01.837Z,102153.81
2022-08-10T07:30:05.673Z,102162.50
2022-08-10T07:32:09.781Z,102155.59
2022-08-10T07:34:22.620Z,102084.72
2022-08-10T07:36:33.523Z,102157.28
2022-08-10T07:38:37.187Z,102184.91
2022-08-10T07:40:42.499Z,102179.38
2022-08-10T07:42:47.734Z,102191.47
2022-08-10T07:44:50.953Z,102111.38
2022-08-10T07:46:56.352Z,102165.66
2022-08-10T07:49:18.953Z,102186.38
2022-08-10T07:51:23.152Z,102108.25
2022-08-10T07:53:28.691Z,102170.97
2022-08-10T07:56:04.466Z,102182.75
2022-08-10T07:57:58.163Z,102187.28
2022-08-10T08:00:06.827Z,102184.81
2022-08-10T08:02:30.851Z,102173.00
2022-08-10T08:04:38.897Z,102179.13
2022-08-10T08:06:43.214Z,102150.84
2022-08-10T08:08:46.850Z,102145.56
2022-08-10T08:10:50.707Z,102153.66
2022-08-10T08:12:57.665Z,102130.22
2022-08-10T08:15:01.675Z,102186.59
2022-08-10T08:17:18.238Z,102156.91
2022-08-10T08:19:37.540Z,102172.00
2022-08-10T08:24:05.428Z,102169.91
2022-08-10T08:24:30.941Z,102176.56
2022-08-10T08:26:31.291Z,102166.16
2022-08-10T08:28:37.958Z,102164.84
2022-08-10T08:30:44.587Z,102179.81
2022-08-10T08:32:52.448Z,102118.56
2022-08-10T08:35:10.907Z,102175.69
2022-08-10T08:38:28.853Z,102183.00
2022-08-10T08:39:41.611Z,102137.06
2022-08-10T08:42:24.161Z,102152.81
2022-08-10T08:45:21.366Z,102172.31
2022-08-10T08:48:05.782Z,102157.88
2022-08-10T08:50:32.577Z,102158.13
2022-08-10T08:52:55.707Z,102155.00
2022-08-10T08:56:04.808Z,102143.13
2022-08-10T08:58:31.376Z,102148.94
2022-08-10T09:00:57.252Z,102122.00
2022-08-10T09:03:28.155Z,102162.47
2022-08-10T09:06:08.082Z,102143.63
2022-08-10T09:08:16.275Z,102167.31
2022-08-10T09:10:40.872Z,102105.78
2022-08-10T09:13:08.342Z,102140.78
2022-08-10T09:15:49.136Z,102124.84
2022-08-10T09:18:25.949Z,102160.34
2022-08-10T09:20:54.486Z,102150.28
2022-08-10T09:23:03.777Z,102156.50
2022-08-10T09:25:33.076Z,102127.81
2022-08-10T09:28:03.713Z,102149.44
2022-08-10T09:30:11.618Z,102153.47
2022-08-10T09:36:15.645Z,102140.47
2022-08-10T09:36:21.931Z,102127.81
2022-08-10T09:38:02.410Z,102151.16
2022-08-10T09:40:58.878Z,102159.13
2022-08-10T09:43:25.185Z,102140.75
2022-08-10T09:45:50.793Z,102113.94
2022-08-10T09:48:31.148Z,102144.09
2022-08-10T09:51:05.443Z,102143.94
2022-08-10T09:53:27.294Z,102149.34
2022-08-10T09:56:18.282Z,102125.09
2022-08-10T09:59:59.380Z,102145.03
2022-08-10T10:02:00.689Z,102118.31
2022-08-10T10:04:22.765Z,102125.59
2022-08-10T10:06:51.001Z,102104.81
2022-08-10T10:09:11.044Z,102105.88
2022-08-10T10:11:57.279Z,102126.25
2022-08-10T10:14:30.848Z,102094.66
2022-08-10T10:16:52.341Z,102114.81
2022-08-10T10:19:15.831Z,102114.22
2022-08-10T10:21:54.478Z,102090.66
2022-08-10T10:24:27.925Z,102125.69
2022-08-10T10:27:16.199Z,102108.19
2022-08-10T10:29:59.568Z,102099.38
2022-08-10T10:32:36.951Z,102089.38
2022-08-10T10:35:36.896Z,102107.06
2022-08-10T10:38:10.644Z,102079.81
2022-08-10T10:40:05.453Z,101998.78
2022-08-10T10:42:44.328Z,102098.94
2022-08-10T10:45:50.589Z,102095.16
2022-08-10T10:48:29.218Z,102084.31
2022-08-10T10:51:07.185Z,102097.47
2022-08-10T10:53:25.249Z,102079.00
2022-08-10T10:56:14.492Z,102097.25
2022-08-10T10:58:47.090Z,102081.69
2022-08-10T11:01:23.061Z,102080.00
2022-08-10T11:04:12.331Z,102093.00
2022-08-10T11:06:52.542Z,102082.38
2022-08-10T11:09:03.522Z,102063.81
2022-08-10T11:12:01.750Z,102070.22
2022-08-10T11:14:27.237Z,102076.56
2022-08-10T11:17:01.928Z,102051.72
2022-08-10T11:19:17.734Z,102077.97
2022-08-10T11:21:37.759Z,102069.34
2022-08-10T11:24:48.228Z,102059.44
2022-08-10T11:27:01.187Z,102048.25
2022-08-10T11:29:15.975Z,102057.19
2022-08-10T11:31:40.906Z,102031.34
2022-08-10T11:34:49.361Z,102049.09
2022-08-10T11:37:03.931Z,102048.72
2022-08-10T11:39:20.336Z,102061.53
2022-08-10T11:42:07.132Z,102059.16
2022-08-10T11:44:44.054Z,102049.63
2022-08-10T11:47:05.709Z,102031.50
2022-08-10T11:49:27.235Z,102057.94
2022-08-10T11:51:44.010Z,102051.78
2022-08-10T11:53:50.819Z,102051.78
2022-08-10T11:55:59.391Z,102026.00
2022-08-10T11:58:30.324Z,102052.00
2022-08-10T12:00:36.866Z,102033.50
2022-08-10T12:02:45.233Z,102018.97
2022-08-10T12:05:02.724Z,102039.25
2022-08-10T12:08:10.349Z,102048.19
2022-08-10T12:10:08.982Z,102028.75
2022-08-10T12:11:59.403Z,102030.34
2022-08-10T12:14:50.165Z,102032.09
2022-08-10T12:17:27.278Z,102036.72
2022-08-10T12:20:08.786Z,102022.22
2022-08-10T12:22:17.569Z,101994.06
2022-08-10T12:24:52.174Z,102020.94
2022-08-10T12:27:07.030Z,102036.06
2022-08-10T12:29:53.242Z,102007.56
2022-08-10T12:32:12.437Z,101997.72
2022-08-10T12:34:31.202Z,102025.06
2022-08-10T12:36:50.681Z,102000.72
2022-08-10T12:39:07.336Z,102005.50
2022-08-10T12:41:43.646Z,102020.47
2022-08-10T12:44:09.025Z,102020.00
2022-08-10T12:46:46.397Z,102010.59
2022-08-10T12:49:08.411Z,101989.91
2022-08-10T12:51:15.008Z,101997.53
2022-08-10T12:54:02.335Z,102000.09
2022-08-10T12:56:06.529Z,101991.31
2022-08-10T12:58:57.305Z,102004.19
2022-08-10T13:00:53.845Z,101989.38
2022-08-10T13:03:03.318Z,102010.59
2022-08-10T13:05:11.212Z,101989.56
2022-08-10T13:08:25.361Z,101950.06
2022-08-10T13:09:56.607Z,101970.44
2022-08-10T13:12:44.406Z,101874.63
2022-08-10T13:14:54.815Z,101965.97
2022-08-10T13:17:01.744Z,101968.03
2022-08-10T13:19:05.542Z,101949.59
2022-08-10T13:21:20.803Z,101959.63
2022-08-10T13:23:30.400Z,101959.16
2022-08-10T13:25:38.719Z,101942.13
2022-08-10T13:28:01.085Z,101950.06
2022-08-10T13:30:07.823Z,101938.44
2022-08-10T13:32:14.366Z,101926.03
2022-08-10T13:34:43.337Z,101964.41
2022-08-10T13:36:50.723Z,101961.88
2022-08-10T13:38:57.106Z,101917.63
2022-08-10T13:41:00.515Z,101911.91
2022-08-10T13:43:07.283Z,101951.03
2022-08-10T13:45:17.644Z,101956.13
2022-08-10T13:47:31.839Z,101944.03
2022-08-10T13:50:10.971Z,101951.84
2022-08-10T13:52:26.656Z,101943.56
2022-08-10T13:54:39.431Z,101908.56
2022-08-10T13:56:47.314Z,101893.41
2022-08-10T13:58:53.668Z,101853.66
2022-08-10T14:00:59.491Z,101935.75
2022-08-10T14:03:10.785Z,101919.34
2022-08-10T14:05:14.619Z,101896.56
2022-08-10T14:07:18.026Z,101833.09
2022-08-10T14:09:28.974Z,101868.09
2022-08-10T14:11:33.313Z,101899.59
2022-08-10T14:13:41.071Z,101917.72
2022-08-10T14:15:46.251Z,101912.47
2022-08-10T14:17:56.602Z,101894.50
2022-08-10T14:20:00.353Z,101917.69
2022-08-10T14:22:06.400Z,101915.63
2022-08-10T14:24:30.086Z,101922.47
2022-08-10T14:26:32.822Z,101915.56
2022-08-10T14:28:42.884Z,101918.34
2022-08-10T14:30:49.338Z,101873.63
2022-08-10T14:32:54.207Z,101876.94
2022-08-10T14:36:21.750Z,101903.81
2022-08-10T14:37:38.798Z,101892.72
2022-08-10T14:39:51.676Z,101880.28
2022-08-10T14:42:03.001Z,101876.59
2022-08-10T14:44:12.690Z,101866.63
2022-08-10T14:46:22.018Z,101853.16
2022-08-10T14:48:34.708Z,101896.56
2022-08-10T14:50:55.205Z,101896.91
2022-08-10T14:53:26.907Z,101882.25
2022-08-10T14:55:31.575Z,101814.97
2022-08-10T14:58:16.474Z,101794.47
2022-08-10T15:00:30.897Z,101876.63
2022-08-10T15:02:55.933Z,101851.84
2022-08-10T15:05:02.864Z,101870.91
2022-08-10T15:07:11.846Z,101856.44
2022-08-10T15:09:20.157Z,101857.69
2022-08-10T15:12:14.803Z,101864.53
2022-08-10T15:14:41.520Z,101856.59
2022-08-10T15:16:13.601Z,101785.38
2022-08-10T15:18:17.726Z,101886.66
2022-08-10T15:20:25.489Z,101847.19
2022-08-10T15:22:37.561Z,101825.59
2022-08-10T15:25:00.698Z,101866.75
2022-08-10T15:27:08.666Z,101774.88
2022-08-10T15:29:23.217Z,101832.59
2022-08-10T15:31:33.788Z,101782.03
2022-08-10T15:34:04.465Z,101855.31
2022-08-10T15:36:38.915Z,101865.38
2022-08-10T15:38:44.573Z,101834.53
2022-08-10T15:40:54.271Z,101853.94
2022-08-10T15:43:20.855Z,101849.19
2022-08-10T15:45:28.336Z,101824.06
2022-08-10T15:47:45.633Z,101851.09
2022-08-10T15:50:09.200Z,101858.75
2022-08-10T15:52:39.797Z,101859.56
2022-08-10T15:55:44.248Z,101857.78
2022-08-10T15:57:58.843Z,101854.59
2022-08-10T16:00:10.324Z,101820.72
2022-08-10T16:02:18.826Z,101821.06
2022-08-10T16:04:43.211Z,101824.53
2022-08-10T16:07:17.397Z,101837.72
2022-08-10T16:10:24.842Z,101829.78
2022-08-10T16:12:03.870Z,101849.50
2022-08-10T16:14:13.522Z,101815.66
2022-08-10T16:16:19.495Z,101818.66
2022-08-10T16:18:30.101Z,101829.44
2022-08-10T16:20:53.031Z,101849.16
2022-08-10T16:23:05.430Z,101832.16
2022-08-10T16:25:14.722Z,101735.50
2022-08-10T16:27:26.964Z,101819.91
2022-08-10T16:29:32.286Z,101809.41
2022-08-10T16:31:58.065Z,101728.81
2022-08-10T16:34:04.394Z,101842.00
2022-08-10T16:36:08.907Z,101840.59
2022-08-10T16:38:13.513Z,101807.81
2022-08-10T16:40:19.611Z,101822.31
2022-08-10T16:42:28.138Z,101841.22
2022-08-10T16:44:53.787Z,101788.47
2022-08-10T16:46:57.987Z,101822.50
2022-08-10T16:49:01.674Z,101711.97
2022-08-10T16:51:06.220Z,101798.59
2022-08-10T16:53:15.017Z,101716.09
2022-08-10T16:55:24.264Z,101822.81
2022-08-10T16:57:47.569Z,101810.84
2022-08-10T16:59:53.621Z,101799.22
2022-08-10T17:01:57.808Z,101819.28
2022-08-10T17:04:10.010Z,101746.13
2022-08-10T17:06:29.887Z,101825.63
2022-08-10T17:08:33.038Z,101713.19
2022-08-10T17:10:37.438Z,101793.81
2022-08-10T17:12:41.783Z,101804.16
2022-08-10T17:14:45.025Z,101814.00
2022-08-10T17:16:56.632Z,101810.84
2022-08-10T17:18:59.876Z,101729.22
2022-08-10T17:21:23.018Z,101819.75
2022-08-10T17:23:34.006Z,101801.63
2022-08-10T17:25:48.309Z,101826.59
2022-08-10T17:28:33.259Z,101710.94
2022-08-10T17:30:32.227Z,101723.63
2022-08-10T17:32:55.161Z,101796.59
2022-08-10T17:35:01.888Z,101801.69
2022-08-10T17:37:10.820Z,101811.28
2022-08-10T17:39:16.017Z,101804.06
2022-08-10T17:41:29.982Z,101822.44
2022-08-10T17:44:00.830Z,101823.53
2022-08-10T17:45:57.270Z,101710.69
2022-08-10T17:48:05.748Z,101827.00
2022-08-10T17:50:08.986Z,101802.59
2022-08-10T17:52:21.457Z,101809.78
2022-08-10T17:54:32.353Z,101829.00
2022-08-10T17:56:37.912Z,101828.16
2022-08-10T17:58:49.155Z,101832.47
2022-08-10T18:01:38.765Z,101827.88
2022-08-10T18:03:31.270Z,101782.16
2022-08-10T18:05:35.201Z,101791.06
2022-08-10T18:07:51.202Z,101812.19
2022-08-10T18:09:56.539Z,101831.75
2022-08-10T18:12:17.608Z,101782.94
2022-08-10T18:14:22.653Z,101810.50
2022-08-10T18:16:31.458Z,101792.13
2022-08-10T18:18:37.835Z,101785.56
2022-08-10T18:20:41.418Z,101819.13
2022-08-10T18:22:49.326Z,101803.81
2022-08-10T18:24:54.461Z,101789.22
2022-08-10T18:27:02.039Z,101739.97
2022-08-10T18:29:12.825Z,101816.28
2022-08-10T18:31:25.863Z,101795.22
2022-08-10T18:33:36.026Z,101822.13
2022-08-10T18:35:39.711Z,101833.72
2022-08-10T18:37:47.858Z,101833.81
2022-08-10T18:39:55.543Z,101817.03
2022-08-10T18:42:16.693Z,101814.75
2022-08-10T18:44:22.675Z,101801.88
2022-08-10T18:46:29.963Z,101827.41
2022-08-10T18:48:43.730Z,101837.78
2022-08-10T18:50:53.635Z,101846.69
2022-08-10T18:53:01.813Z,101819.41
2022-08-10T18:55:35.533Z,101842.84
2022-08-10T18:58:16.029Z,101847.97
2022-08-10T19:00:20.822Z,101846.00
2022-08-10T19:02:59.598Z,101856.78
2022-08-10T19:05:30.218Z,101857.41
2022-08-10T19:08:13.552Z,101837.84
2022-08-10T19:11:03.704Z,101854.00
2022-08-10T19:13:59.080Z,101855.41
2022-08-10T19:16:17.509Z,101853.31
2022-08-10T19:18:42.961Z,101830.00
2022-08-10T19:21:28.613Z,101866.97
2022-08-10T19:23:43.998Z,101805.91
2022-08-10T19:26:42.549Z,101862.47
2022-08-10T19:30:09.817Z,101823.06
2022-08-10T19:32:18.183Z,101815.53
2022-08-10T19:34:32.361Z,101862.59
2022-08-10T19:37:22.595Z,101809.06
2022-08-10T19:40:09.831Z,101857.63
2022-08-10T19:42:31.273Z,101851.81
2022-08-10T19:44:46.199Z,101857.13
2022-08-10T19:47:05.090Z,101851.28
2022-08-10T19:49:43.021Z,101850.88
2022-08-10T19:52:17.099Z,101843.47
2022-08-10T19:54:38.205Z,101843.13
2022-08-10T19:57:24.590Z,101820.63
2022-08-10T20:00:02.112Z,101813.44
2022-08-10T20:01:57.354Z,101846.00
2022-08-10T20:04:10.161Z,101832.13
2022-08-10T20:06:27.809Z,101836.94
2022-08-10T20:08:47.624Z,101777.84
2022-08-10T20:11:06.358Z,101849.34
2022-08-10T20:13:15.280Z,101800.63
2022-08-10T20:15:42.451Z,101854.78
2022-08-10T20:18:00.810Z,101847.94
2022-08-10T20:20:13.924Z,101858.84
2022-08-10T20:22:28.686Z,101839.34
2022-08-10T20:24:52.042Z,101826.97
2022-08-10T20:27:13.157Z,101744.66
2022-08-10T20:29:57.388Z,101866.75
2022-08-10T20:32:08.222Z,101851.56
2022-08-10T20:34:33.490Z,101871.13
2022-08-10T20:36:54.268Z,101872.78
2022-08-10T20:39:42.430Z,101848.31
2022-08-10T20:42:00.631Z,101875.53
2022-08-10T20:45:07.159Z,101865.44
2022-08-10T20:47:32.101Z,101872.97
2022-08-10T20:50:12.043Z,101871.09
2022-08-10T20:52:16.494Z,101760.00
2022-08-10T20:54:21.140Z,101804.00
2022-08-10T20:56:59.489Z,101882.38
2022-08-10T21:00:02.461Z,101885.56
2022-08-10T21:02:37.649Z,101890.13
2022-08-10T21:04:58.589Z,101878.31
2022-08-10T21:07:44.023Z,101885.75
2022-08-10T21:09:58.681Z,101875.09
2022-08-10T21:12:36.336Z,101890.81
2022-08-10T21:14:53.443Z,101893.28
2022-08-10T21:17:27.206Z,101892.66
2022-08-10T21:19:55.650Z,101891.56
2022-08-10T21:22:20.805Z,101889.44
2022-08-10T21:24:35.910Z,101862.47
2022-08-10T21:26:55.077Z,101892.06
2022-08-10T21:29:39.720Z,101889.88
2022-08-10T21:31:56.880Z,101884.25
2022-08-10T21:34:36.948Z,101886.69
2022-08-10T21:36:52.607Z,101874.19
2022-08-10T21:39:41.885Z,101888.88
2022-08-10T21:42:14.877Z,101876.34
2022-08-10T21:45:08.219Z,101876.84
2022-08-10T21:48:30.049Z,101886.22
2022-08-10T21:51:05.782Z,101866.75
2022-08-10T21:53:45.233Z,101835.06
2022-08-10T21:56:27.585Z,101886.88
2022-08-10T21:59:02.557Z,101847.69
2022-08-10T22:01:39.277Z,101867.72
2022-08-10T22:04:02.194Z,101839.47
2022-08-10T22:06:24.189Z,101864.03
2022-08-10T22:08:58.031Z,101815.81
2022-08-10T22:11:22.291Z,101884.59
2022-08-10T22:13:43.753Z,101859.78
2022-08-10T22:16:14.171Z,101884.13
2022-08-10T22:18:53.891Z,101881.19
2022-08-10T22:22:08.090Z,101860.19
2022-08-10T22:25:16.423Z,101884.19
2022-08-10T22:27:52.944Z,101813.53
2022-08-10T22:30:18.794Z,101863.66
2022-08-10T22:33:14.853Z,101884.44
2022-08-10T22:36:14.472Z,101868.16
2022-08-10T22:40:11.631Z,101864.41
2022-08-10T22:42:14.359Z,101865.78
2022-08-10T22:44:39.963Z,101847.38
2022-08-10T22:47:02.511Z,101848.50
2022-08-10T22:49:05.698Z,101863.72
2022-08-10T22:51:24.294Z,101863.47
2022-08-10T22:53:54.356Z,101845.06
2022-08-10T22:56:15.320Z,101807.72
2022-08-10T22:58:47.389Z,101850.97
2022-08-10T23:01:07.073Z,101851.50
2022-08-10T23:03:21.725Z,101862.75
2022-08-10T23:05:33.812Z,101842.16
2022-08-10T23:07:49.332Z,101832.31
2022-08-10T23:10:01.956Z,101836.00
2022-08-10T23:12:13.539Z,101805.38
2022-08-10T23:14:18.599Z,101822.72
2022-08-10T23:16:46.509Z,101848.88
2022-08-10T23:19:11.994Z,101851.00
2022-08-10T23:21:16.563Z,101827.53
2022-08-10T23:23:23.469Z,101859.06
2022-08-10T23:25:30.323Z,101833.69
2022-08-10T23:27:40.292Z,101821.72
2022-08-10T23:30:03.791Z,101864.97
2022-08-10T23:32:13.485Z,101751.81
2022-08-10T23:34:27.080Z,101824.94
2022-08-10T23:36:35.671Z,101846.56
2022-08-10T23:38:40.418Z,101856.16
2022-08-10T23:40:53.962Z,101842.31
2022-08-10T23:42:57.728Z,101721.69
2022-08-10T23:45:01.683Z,101750.78
2022-08-10T23:47:06.261Z,101845.28
2022-08-10T23:49:12.373Z,101826.34
2022-08-10T23:51:17.473Z,101835.44
2022-08-10T23:53:34.743Z,101851.69
2022-08-10T23:55:49.208Z,101767.34
2022-08-10T23:58:31.596Z,101840.50
